sensor_id;sensor_type;location;lat;lon;timestamp;temperature;humidity
48551;DHT22;34397;51.176;6.738;2024-02-21T00:00:57;9.00;77.80
48551;DHT22;34397;51.176;6.738;2024-02-21T00:03:30;9.00;78.30
48551;DHT22;34397;51.176;6.738;2024-02-21T00:06:03;9.00;77.80
48551;DHT22;34397;51.176;6.738;2024-02-21T00:08:35;9.00;77.90
48551;DHT22;34397;51.176;6.738;2024-02-21T00:11:07;9.00;77.90
48551;DHT22;34397;51.176;6.738;2024-02-21T00:13:38;9.00;78.00
48551;DHT22;34397;51.176;6.738;2024-02-21T00:16:10;9.00;77.90
48551;DHT22;34397;51.176;6.738;2024-02-21T00:18:45;9.00;78.00
48551;DHT22;34397;51.176;6.738;2024-02-21T00:21:17;9.00;78.10
48551;DHT22;34397;51.176;6.738;2024-02-21T00:23:49;9.00;78.20
48551;DHT22;34397;51.176;6.738;2024-02-21T00:26:21;9.00;78.20
48551;DHT22;34397;51.176;6.738;2024-02-21T00:28:53;9.00;78.40
48551;DHT22;34397;51.176;6.738;2024-02-21T00:31:25;9.00;78.30
48551;DHT22;34397;51.176;6.738;2024-02-21T00:33:58;9.00;78.30
48551;DHT22;34397;51.176;6.738;2024-02-21T00:36:30;9.00;78.50
48551;DHT22;34397;51.176;6.738;2024-02-21T00:39:01;9.00;78.50
48551;DHT22;34397;51.176;6.738;2024-02-21T00:41:33;9.00;78.70
48551;DHT22;34397;51.176;6.738;2024-02-21T00:44:05;9.00;78.80
48551;DHT22;34397;51.176;6.738;2024-02-21T00:46:37;8.90;78.90
48551;DHT22;34397;51.176;6.738;2024-02-21T00:49:10;8.90;78.90
48551;DHT22;34397;51.176;6.738;2024-02-21T00:51:42;8.90;78.90
48551;DHT22;34397;51.176;6.738;2024-02-21T00:54:14;8.90;79.00
48551;DHT22;34397;51.176;6.738;2024-02-21T00:56:46;8.90;79.00
48551;DHT22;34397;51.176;6.738;2024-02-21T00:59:18;8.90;79.30
48551;DHT22;34397;51.176;6.738;2024-02-21T01:01:50;8.90;79.20
48551;DHT22;34397;51.176;6.738;2024-02-21T01:04:23;8.90;79.20
48551;DHT22;34397;51.176;6.738;2024-02-21T01:06:55;8.90;79.20
48551;DHT22;34397;51.176;6.738;2024-02-21T01:09:27;8.90;79.20
48551;DHT22;34397;51.176;6.738;2024-02-21T01:11:59;9.00;79.20
48551;DHT22;34397;51.176;6.738;2024-02-21T01:14:31;9.00;79.20
48551;DHT22;34397;51.176;6.738;2024-02-21T01:17:03;9.00;79.30
48551;DHT22;34397;51.176;6.738;2024-02-21T01:19:38;9.00;79.30
48551;DHT22;34397;51.176;6.738;2024-02-21T01:22:09;9.00;79.30
48551;DHT22;34397;51.176;6.738;2024-02-21T01:24:41;9.00;79.30
48551;DHT22;34397;51.176;6.738;2024-02-21T01:27:13;9.00;79.30
48551;DHT22;34397;51.176;6.738;2024-02-21T01:29:45;9.00;79.20
48551;DHT22;34397;51.176;6.738;2024-02-21T01:32:19;9.00;79.20
48551;DHT22;34397;51.176;6.738;2024-02-21T01:34:53;9.00;79.20
48551;DHT22;34397;51.176;6.738;2024-02-21T01:37:25;9.00;79.40
48551;DHT22;34397;51.176;6.738;2024-02-21T01:39:57;9.10;79.10
48551;DHT22;34397;51.176;6.738;2024-02-21T01:45:15;9.00;79.10
48551;DHT22;34397;51.176;6.738;2024-02-21T01:47:47;9.10;79.20
48551;DHT22;34397;51.176;6.738;2024-02-21T01:50:22;9.00;79.20
48551;DHT22;34397;51.176;6.738;2024-02-21T01:52:55;9.00;79.20
48551;DHT22;34397;51.176;6.738;2024-02-21T01:55:26;9.00;79.20
48551;DHT22;34397;51.176;6.738;2024-02-21T01:57:58;9.00;79.40
48551;DHT22;34397;51.176;6.738;2024-02-21T02:00:31;9.00;79.30
48551;DHT22;34397;51.176;6.738;2024-02-21T02:03:04;9.00;79.20
48551;DHT22;34397;51.176;6.738;2024-02-21T02:05:38;9.00;79.20
48551;DHT22;34397;51.176;6.738;2024-02-21T02:08:10;9.00;79.10
48551;DHT22;34397;51.176;6.738;2024-02-21T02:10:42;9.00;79.10
48551;DHT22;34397;51.176;6.738;2024-02-21T02:13:14;9.00;79.00
48551;DHT22;34397;51.176;6.738;2024-02-21T02:15:47;9.00;78.90
48551;DHT22;34397;51.176;6.738;2024-02-21T02:18:20;9.00;79.00
48551;DHT22;34397;51.176;6.738;2024-02-21T02:20:54;9.00;79.10
48551;DHT22;34397;51.176;6.738;2024-02-21T02:23:28;9.00;79.00
48551;DHT22;34397;51.176;6.738;2024-02-21T02:26:01;8.90;78.90
48551;DHT22;34397;51.176;6.738;2024-02-21T02:28:34;8.90;79.10
48551;DHT22;34397;51.176;6.738;2024-02-21T02:31:07;8.90;79.20
48551;DHT22;34397;51.176;6.738;2024-02-21T02:33:39;9.00;79.20
48551;DHT22;34397;51.176;6.738;2024-02-21T02:36:10;9.00;79.30
48551;DHT22;34397;51.176;6.738;2024-02-21T02:38:44;8.90;79.20
48551;DHT22;34397;51.176;6.738;2024-02-21T02:41:16;8.90;79.00
48551;DHT22;34397;51.176;6.738;2024-02-21T02:43:47;9.00;79.30
48551;DHT22;34397;51.176;6.738;2024-02-21T02:46:19;8.90;79.10
48551;DHT22;34397;51.176;6.738;2024-02-21T02:48:51;8.90;79.20
48551;DHT22;34397;51.176;6.738;2024-02-21T02:51:23;8.90;79.30
48551;DHT22;34397;51.176;6.738;2024-02-21T02:53:56;8.90;79.20
48551;DHT22;34397;51.176;6.738;2024-02-21T02:56:28;8.90;79.10
48551;DHT22;34397;51.176;6.738;2024-02-21T02:59:00;8.90;79.20
48551;DHT22;34397;51.176;6.738;2024-02-21T03:01:33;8.90;79.30
48551;DHT22;34397;51.176;6.738;2024-02-21T03:04:05;8.90;79.20
48551;DHT22;34397;51.176;6.738;2024-02-21T03:06:37;8.90;79.20
48551;DHT22;34397;51.176;6.738;2024-02-21T03:09:10;8.90;79.20
48551;DHT22;34397;51.176;6.738;2024-02-21T03:11:43;8.90;79.20
48551;DHT22;34397;51.176;6.738;2024-02-21T03:14:15;8.90;79.20
48551;DHT22;34397;51.176;6.738;2024-02-21T03:16:46;8.90;79.10
48551;DHT22;34397;51.176;6.738;2024-02-21T03:19:18;8.90;79.10
48551;DHT22;34397;51.176;6.738;2024-02-21T03:21:50;9.00;79.10
48551;DHT22;34397;51.176;6.738;2024-02-21T03:24:24;8.90;78.90
48551;DHT22;34397;51.176;6.738;2024-02-21T03:26:55;8.90;78.90
48551;DHT22;34397;51.176;6.738;2024-02-21T03:29:29;8.90;79.10
48551;DHT22;34397;51.176;6.738;2024-02-21T03:32:01;8.90;79.10
48551;DHT22;34397;51.176;6.738;2024-02-21T03:34:33;8.90;79.10
48551;DHT22;34397;51.176;6.738;2024-02-21T03:37:04;9.00;79.10
48551;DHT22;34397;51.176;6.738;2024-02-21T03:39:38;8.90;78.90
48551;DHT22;34397;51.176;6.738;2024-02-21T03:42:10;8.90;79.00
48551;DHT22;34397;51.176;6.738;2024-02-21T03:44:41;8.90;79.00
48551;DHT22;34397;51.176;6.738;2024-02-21T03:47:13;8.90;78.90
48551;DHT22;34397;51.176;6.738;2024-02-21T03:49:45;8.90;78.90
48551;DHT22;34397;51.176;6.738;2024-02-21T03:52:17;8.90;78.90
48551;DHT22;34397;51.176;6.738;2024-02-21T03:54:50;8.90;79.00
48551;DHT22;34397;51.176;6.738;2024-02-21T03:57:22;8.90;79.00
48551;DHT22;34397;51.176;6.738;2024-02-21T03:59:54;8.90;78.90
48551;DHT22;34397;51.176;6.738;2024-02-21T04:02:26;8.90;78.90
48551;DHT22;34397;51.176;6.738;2024-02-21T04:04:58;8.90;78.80
48551;DHT22;34397;51.176;6.738;2024-02-21T04:07:30;8.90;78.80
48551;DHT22;34397;51.176;6.738;2024-02-21T04:10:04;8.90;78.70
48551;DHT22;34397;51.176;6.738;2024-02-21T04:12:37;8.90;78.50
48551;DHT22;34397;51.176;6.738;2024-02-21T04:15:09;8.90;78.50
48551;DHT22;34397;51.176;6.738;2024-02-21T04:17:41;8.90;78.10
48551;DHT22;34397;51.176;6.738;2024-02-21T04:20:14;8.90;78.50
48551;DHT22;34397;51.176;6.738;2024-02-21T04:22:47;8.90;78.60
48551;DHT22;34397;51.176;6.738;2024-02-21T04:25:20;8.80;78.40
48551;DHT22;34397;51.176;6.738;2024-02-21T04:27:52;8.90;78.50
48551;DHT22;34397;51.176;6.738;2024-02-21T04:30:24;8.80;78.40
48551;DHT22;34397;51.176;6.738;2024-02-21T04:32:56;8.80;78.30
48551;DHT22;34397;51.176;6.738;2024-02-21T04:35:28;8.90;78.50
48551;DHT22;34397;51.176;6.738;2024-02-21T04:38:00;8.80;78.40
48551;DHT22;34397;51.176;6.738;2024-02-21T04:40:33;8.80;78.40
48551;DHT22;34397;51.176;6.738;2024-02-21T04:43:05;8.80;78.20
48551;DHT22;34397;51.176;6.738;2024-02-21T04:45:36;8.80;78.30
48551;DHT22;34397;51.176;6.738;2024-02-21T04:48:08;8.80;78.50
48551;DHT22;34397;51.176;6.738;2024-02-21T04:50:40;8.80;78.30
48551;DHT22;34397;51.176;6.738;2024-02-21T04:53:12;8.80;77.90
48551;DHT22;34397;51.176;6.738;2024-02-21T04:55:46;8.80;78.10
48551;DHT22;34397;51.176;6.738;2024-02-21T04:58:18;8.80;78.00
48551;DHT22;34397;51.176;6.738;2024-02-21T05:00:50;8.80;78.10
48551;DHT22;34397;51.176;6.738;2024-02-21T05:03:24;8.80;78.10
48551;DHT22;34397;51.176;6.738;2024-02-21T05:05:55;8.80;78.20
48551;DHT22;34397;51.176;6.738;2024-02-21T05:08:27;8.80;78.20
48551;DHT22;34397;51.176;6.738;2024-02-21T05:11:00;8.80;78.00
48551;DHT22;34397;51.176;6.738;2024-02-21T05:13:33;8.80;77.90
48551;DHT22;34397;51.176;6.738;2024-02-21T05:16:05;8.80;77.60
48551;DHT22;34397;51.176;6.738;2024-02-21T05:18:37;8.90;77.70
48551;DHT22;34397;51.176;6.738;2024-02-21T05:21:09;8.90;77.70
48551;DHT22;34397;51.176;6.738;2024-02-21T05:23:41;8.90;77.70
48551;DHT22;34397;51.176;6.738;2024-02-21T05:26:21;8.80;77.60
48551;DHT22;34397;51.176;6.738;2024-02-21T05:28:53;8.90;77.70
48551;DHT22;34397;51.176;6.738;2024-02-21T05:31:25;8.90;77.70
48551;DHT22;34397;51.176;6.738;2024-02-21T05:33:57;8.90;77.60
48551;DHT22;34397;51.176;6.738;2024-02-21T05:36:29;8.90;77.60
48551;DHT22;34397;51.176;6.738;2024-02-21T05:39:00;8.90;77.60
48551;DHT22;34397;51.176;6.738;2024-02-21T05:41:33;8.90;77.60
48551;DHT22;34397;51.176;6.738;2024-02-21T05:44:05;8.90;77.50
48551;DHT22;34397;51.176;6.738;2024-02-21T05:46:37;8.90;77.50
48551;DHT22;34397;51.176;6.738;2024-02-21T05:49:09;9.00;77.70
48551;DHT22;34397;51.176;6.738;2024-02-21T05:51:41;9.00;77.70
48551;DHT22;34397;51.176;6.738;2024-02-21T05:54:12;9.00;77.40
48551;DHT22;34397;51.176;6.738;2024-02-21T05:56:47;9.00;77.30
48551;DHT22;34397;51.176;6.738;2024-02-21T05:59:19;9.00;77.30
48551;DHT22;34397;51.176;6.738;2024-02-21T06:01:55;9.00;77.30
48551;DHT22;34397;51.176;6.738;2024-02-21T06:04:28;9.00;77.20
48551;DHT22;34397;51.176;6.738;2024-02-21T06:07:00;9.00;77.40
48551;DHT22;34397;51.176;6.738;2024-02-21T06:09:32;9.00;77.30
48551;DHT22;34397;51.176;6.738;2024-02-21T06:12:05;9.00;77.30
48551;DHT22;34397;51.176;6.738;2024-02-21T06:14:38;9.00;77.10
48551;DHT22;34397;51.176;6.738;2024-02-21T06:17:09;8.90;77.10
48551;DHT22;34397;51.176;6.738;2024-02-21T06:19:42;9.00;77.10
48551;DHT22;34397;51.176;6.738;2024-02-21T06:22:14;8.90;77.10
48551;DHT22;34397;51.176;6.738;2024-02-21T06:24:46;9.00;77.00
48551;DHT22;34397;51.176;6.738;2024-02-21T06:27:20;8.90;77.10
48551;DHT22;34397;51.176;6.738;2024-02-21T06:29:52;8.90;77.10
48551;DHT22;34397;51.176;6.738;2024-02-21T06:32:24;8.90;77.10
48551;DHT22;34397;51.176;6.738;2024-02-21T06:34:56;9.00;77.30
48551;DHT22;34397;51.176;6.738;2024-02-21T06:37:28;9.00;77.20
48551;DHT22;34397;51.176;6.738;2024-02-21T06:40:00;8.90;77.10
48551;DHT22;34397;51.176;6.738;2024-02-21T06:42:33;8.90;77.10
48551;DHT22;34397;51.176;6.738;2024-02-21T06:45:05;8.90;77.00
48551;DHT22;34397;51.176;6.738;2024-02-21T06:47:38;8.90;77.00
48551;DHT22;34397;51.176;6.738;2024-02-21T06:50:10;8.90;77.10
48551;DHT22;34397;51.176;6.738;2024-02-21T06:52:42;8.90;77.00
48551;DHT22;34397;51.176;6.738;2024-02-21T06:55:13;8.90;76.90
48551;DHT22;34397;51.176;6.738;2024-02-21T06:57:48;8.90;76.80
48551;DHT22;34397;51.176;6.738;2024-02-21T07:00:20;8.90;76.90
48551;DHT22;34397;51.176;6.738;2024-02-21T07:02:52;8.90;77.00
48551;DHT22;34397;51.176;6.738;2024-02-21T07:05:24;8.90;76.70
48551;DHT22;34397;51.176;6.738;2024-02-21T07:08:01;8.90;76.70
48551;DHT22;34397;51.176;6.738;2024-02-21T07:10:35;8.90;76.40
48551;DHT22;34397;51.176;6.738;2024-02-21T07:13:08;8.90;76.60
48551;DHT22;34397;51.176;6.738;2024-02-21T07:15:40;8.90;76.30
48551;DHT22;34397;51.176;6.738;2024-02-21T07:18:12;8.90;76.50
48551;DHT22;34397;51.176;6.738;2024-02-21T07:20:44;8.80;76.40
48551;DHT22;34397;51.176;6.738;2024-02-21T07:23:16;8.80;76.90
48551;DHT22;34397;51.176;6.738;2024-02-21T07:25:47;8.80;77.20
48551;DHT22;34397;51.176;6.738;2024-02-21T07:28:21;8.80;77.60
48551;DHT22;34397;51.176;6.738;2024-02-21T07:30:53;8.80;77.60
48551;DHT22;34397;51.176;6.738;2024-02-21T07:33:25;8.70;77.60
48551;DHT22;34397;51.176;6.738;2024-02-21T07:35:56;8.80;77.90
48551;DHT22;34397;51.176;6.738;2024-02-21T07:38:28;8.70;77.90
48551;DHT22;34397;51.176;6.738;2024-02-21T07:41:00;8.70;78.00
48551;DHT22;34397;51.176;6.738;2024-02-21T07:43:33;8.70;78.10
48551;DHT22;34397;51.176;6.738;2024-02-21T07:46:05;8.70;78.40
48551;DHT22;34397;51.176;6.738;2024-02-21T07:48:37;8.70;78.40
48551;DHT22;34397;51.176;6.738;2024-02-21T07:51:09;8.60;78.40
48551;DHT22;34397;51.176;6.738;2024-02-21T07:53:40;8.70;78.40
48551;DHT22;34397;51.176;6.738;2024-02-21T07:56:15;8.60;78.60
48551;DHT22;34397;51.176;6.738;2024-02-21T07:58:48;8.60;78.50
48551;DHT22;34397;51.176;6.738;2024-02-21T08:01:21;8.60;78.40
48551;DHT22;34397;51.176;6.738;2024-02-21T08:03:52;8.70;78.60
48551;DHT22;34397;51.176;6.738;2024-02-21T08:06:24;8.60;79.00
48551;DHT22;34397;51.176;6.738;2024-02-21T08:08:56;8.70;78.60
48551;DHT22;34397;51.176;6.738;2024-02-21T08:11:28;8.70;78.30
48551;DHT22;34397;51.176;6.738;2024-02-21T08:14:01;8.60;77.90
48551;DHT22;34397;51.176;6.738;2024-02-21T08:16:33;8.60;77.60
48551;DHT22;34397;51.176;6.738;2024-02-21T08:19:05;8.60;77.80
48551;DHT22;34397;51.176;6.738;2024-02-21T08:21:37;8.50;77.30
48551;DHT22;34397;51.176;6.738;2024-02-21T08:24:09;8.50;77.40
48551;DHT22;34397;51.176;6.738;2024-02-21T08:26:42;8.40;77.50
48551;DHT22;34397;51.176;6.738;2024-02-21T08:29:16;8.40;77.80
48551;DHT22;34397;51.176;6.738;2024-02-21T08:31:48;8.40;77.90
48551;DHT22;34397;51.176;6.738;2024-02-21T08:34:20;8.40;77.80
48551;DHT22;34397;51.176;6.738;2024-02-21T08:36:52;8.30;77.90
48551;DHT22;34397;51.176;6.738;2024-02-21T08:39:23;8.40;78.20
48551;DHT22;34397;51.176;6.738;2024-02-21T08:41:55;8.40;78.20
48551;DHT22;34397;51.176;6.738;2024-02-21T08:44:29;8.40;78.30
48551;DHT22;34397;51.176;6.738;2024-02-21T08:47:01;8.40;78.30
48551;DHT22;34397;51.176;6.738;2024-02-21T08:49:34;8.50;78.50
48551;DHT22;34397;51.176;6.738;2024-02-21T08:52:06;8.50;78.20
48551;DHT22;34397;51.176;6.738;2024-02-21T08:54:38;8.50;78.30
48551;DHT22;34397;51.176;6.738;2024-02-21T08:57:10;8.60;78.80
48551;DHT22;34397;51.176;6.738;2024-02-21T08:59:45;8.60;78.20
48551;DHT22;34397;51.176;6.738;2024-02-21T09:02:17;8.60;78.10
48551;DHT22;34397;51.176;6.738;2024-02-21T09:04:49;8.70;78.20
48551;DHT22;34397;51.176;6.738;2024-02-21T09:07:21;8.70;78.10
48551;DHT22;34397;51.176;6.738;2024-02-21T09:09:53;8.70;77.90
48551;DHT22;34397;51.176;6.738;2024-02-21T09:12:25;8.70;77.70
48551;DHT22;34397;51.176;6.738;2024-02-21T09:14:58;8.70;77.70
48551;DHT22;34397;51.176;6.738;2024-02-21T09:17:30;8.80;77.70
48551;DHT22;34397;51.176;6.738;2024-02-21T09:20:02;8.80;77.40
48551;DHT22;34397;51.176;6.738;2024-02-21T09:22:34;8.90;76.90
48551;DHT22;34397;51.176;6.738;2024-02-21T09:25:08;8.90;76.60
48551;DHT22;34397;51.176;6.738;2024-02-21T09:27:44;9.00;76.20
48551;DHT22;34397;51.176;6.738;2024-02-21T09:30:18;9.00;75.70
48551;DHT22;34397;51.176;6.738;2024-02-21T09:32:50;9.00;75.60
48551;DHT22;34397;51.176;6.738;2024-02-21T09:35:23;9.10;75.60
48551;DHT22;34397;51.176;6.738;2024-02-21T09:37:57;9.10;75.60
48551;DHT22;34397;51.176;6.738;2024-02-21T09:40:28;9.10;75.50
48551;DHT22;34397;51.176;6.738;2024-02-21T09:43:03;9.10;75.30
48551;DHT22;34397;51.176;6.738;2024-02-21T09:45:38;9.10;75.40
48551;DHT22;34397;51.176;6.738;2024-02-21T09:48:35;9.20;74.70
48551;DHT22;34397;51.176;6.738;2024-02-21T09:51:15;9.20;72.80
48551;DHT22;34397;51.176;6.738;2024-02-21T09:53:49;9.20;73.20
48551;DHT22;34397;51.176;6.738;2024-02-21T09:56:22;9.20;73.20
48551;DHT22;34397;51.176;6.738;2024-02-21T09:58:55;9.20;73.00
48551;DHT22;34397;51.176;6.738;2024-02-21T10:01:28;9.30;73.60
48551;DHT22;34397;51.176;6.738;2024-02-21T10:04:00;9.30;73.10
48551;DHT22;34397;51.176;6.738;2024-02-21T10:06:33;9.40;73.40
48551;DHT22;34397;51.176;6.738;2024-02-21T10:09:07;9.40;72.40
48551;DHT22;34397;51.176;6.738;2024-02-21T10:11:39;9.40;72.20
48551;DHT22;34397;51.176;6.738;2024-02-21T10:14:11;9.50;72.60
48551;DHT22;34397;51.176;6.738;2024-02-21T10:16:44;9.50;72.70
48551;DHT22;34397;51.176;6.738;2024-02-21T10:19:17;9.50;71.90
48551;DHT22;34397;51.176;6.738;2024-02-21T10:22:02;9.60;71.70
48551;DHT22;34397;51.176;6.738;2024-02-21T10:24:35;9.60;70.90
48551;DHT22;34397;51.176;6.738;2024-02-21T10:27:09;9.60;70.40
48551;DHT22;34397;51.176;6.738;2024-02-21T10:29:42;9.60;70.60
48551;DHT22;34397;51.176;6.738;2024-02-21T10:32:15;9.60;70.60
48551;DHT22;34397;51.176;6.738;2024-02-21T10:34:47;9.50;71.10
48551;DHT22;34397;51.176;6.738;2024-02-21T10:37:22;9.60;71.50
48551;DHT22;34397;51.176;6.738;2024-02-21T10:39:54;9.70;71.50
48551;DHT22;34397;51.176;6.738;2024-02-21T10:42:29;9.70;70.70
48551;DHT22;34397;51.176;6.738;2024-02-21T10:45:03;9.70;70.00
48551;DHT22;34397;51.176;6.738;2024-02-21T10:47:39;9.70;70.50
48551;DHT22;34397;51.176;6.738;2024-02-21T10:50:14;9.80;70.20
48551;DHT22;34397;51.176;6.738;2024-02-21T10:52:51;9.70;70.50
48551;DHT22;34397;51.176;6.738;2024-02-21T10:55:34;9.80;70.70
48551;DHT22;34397;51.176;6.738;2024-02-21T10:58:10;9.90;70.90
48551;DHT22;34397;51.176;6.738;2024-02-21T11:00:42;10.00;71.20
48551;DHT22;34397;51.176;6.738;2024-02-21T11:03:16;10.10;71.30
48551;DHT22;34397;51.176;6.738;2024-02-21T11:05:48;10.20;71.80
48551;DHT22;34397;51.176;6.738;2024-02-21T11:08:21;10.30;71.40
48551;DHT22;34397;51.176;6.738;2024-02-21T11:10:56;10.40;71.00
48551;DHT22;34397;51.176;6.738;2024-02-21T11:13:30;10.60;71.00
48551;DHT22;34397;51.176;6.738;2024-02-21T11:16:07;10.70;70.40
48551;DHT22;34397;51.176;6.738;2024-02-21T11:18:42;10.80;69.40
48551;DHT22;34397;51.176;6.738;2024-02-21T11:21:14;10.90;69.40
48551;DHT22;34397;51.176;6.738;2024-02-21T11:23:54;11.10;69.60
48551;DHT22;34397;51.176;6.738;2024-02-21T11:26:28;11.20;69.20
48551;DHT22;34397;51.176;6.738;2024-02-21T11:29:01;11.20;68.50
48551;DHT22;34397;51.176;6.738;2024-02-21T11:31:41;11.30;68.40
48551;DHT22;34397;51.176;6.738;2024-02-21T11:34:17;11.40;68.50
48551;DHT22;34397;51.176;6.738;2024-02-21T11:36:51;11.40;67.70
48551;DHT22;34397;51.176;6.738;2024-02-21T11:39:24;11.50;69.20
48551;DHT22;34397;51.176;6.738;2024-02-21T11:42:01;11.40;68.80
48551;DHT22;34397;51.176;6.738;2024-02-21T11:44:35;11.40;68.40
48551;DHT22;34397;51.176;6.738;2024-02-21T11:47:08;11.50;68.90
48551;DHT22;34397;51.176;6.738;2024-02-21T11:49:45;11.50;68.10
48551;DHT22;34397;51.176;6.738;2024-02-21T11:52:21;11.40;67.60
48551;DHT22;34397;51.176;6.738;2024-02-21T11:54:55;11.40;68.50
48551;DHT22;34397;51.176;6.738;2024-02-21T11:57:35;11.40;68.10
48551;DHT22;34397;51.176;6.738;2024-02-21T12:00:15;11.50;68.60
48551;DHT22;34397;51.176;6.738;2024-02-21T12:02:50;11.40;67.80
48551;DHT22;34397;51.176;6.738;2024-02-21T12:05:25;11.40;68.20
48551;DHT22;34397;51.176;6.738;2024-02-21T12:07:59;11.40;68.00
48551;DHT22;34397;51.176;6.738;2024-02-21T12:10:31;11.40;68.10
48551;DHT22;34397;51.176;6.738;2024-02-21T12:13:07;11.40;68.60
48551;DHT22;34397;51.176;6.738;2024-02-21T12:15:39;11.40;67.80
48551;DHT22;34397;51.176;6.738;2024-02-21T12:18:11;11.40;67.40
48551;DHT22;34397;51.176;6.738;2024-02-21T12:20:48;11.40;68.00
48551;DHT22;34397;51.176;6.738;2024-02-21T12:23:19;11.40;67.10
48551;DHT22;34397;51.176;6.738;2024-02-21T12:25:51;11.50;67.60
48551;DHT22;34397;51.176;6.738;2024-02-21T12:28:24;11.50;67.20
48551;DHT22;34397;51.176;6.738;2024-02-21T12:30:56;11.50;66.10
48551;DHT22;34397;51.176;6.738;2024-02-21T12:33:28;11.70;66.90
48551;DHT22;34397;51.176;6.738;2024-02-21T12:36:01;11.80;66.70
48551;DHT22;34397;51.176;6.738;2024-02-21T12:38:34;12.00;66.60
48551;DHT22;34397;51.176;6.738;2024-02-21T12:41:06;12.10;65.90
48551;DHT22;34397;51.176;6.738;2024-02-21T12:43:38;12.20;64.10
48551;DHT22;34397;51.176;6.738;2024-02-21T12:46:10;12.30;63.50
48551;DHT22;34397;51.176;6.738;2024-02-21T12:48:41;12.50;63.90
48551;DHT22;34397;51.176;6.738;2024-02-21T12:51:15;12.70;63.70
48551;DHT22;34397;51.176;6.738;2024-02-21T12:53:51;12.90;62.70
48551;DHT22;34397;51.176;6.738;2024-02-21T12:56:23;13.00;62.60
48551;DHT22;34397;51.176;6.738;2024-02-21T12:58:56;13.20;62.60
48551;DHT22;34397;51.176;6.738;2024-02-21T13:01:28;13.40;61.20
48551;DHT22;34397;51.176;6.738;2024-02-21T13:04:00;13.50;61.10
48551;DHT22;34397;51.176;6.738;2024-02-21T13:06:33;13.70;61.30
48551;DHT22;34397;51.176;6.738;2024-02-21T13:09:05;13.80;60.90
48551;DHT22;34397;51.176;6.738;2024-02-21T13:11:42;14.00;60.60
48551;DHT22;34397;51.176;6.738;2024-02-21T13:14:15;14.10;59.40
48551;DHT22;34397;51.176;6.738;2024-02-21T13:16:47;14.20;60.10
48551;DHT22;34397;51.176;6.738;2024-02-21T13:19:18;14.20;59.10
48551;DHT22;34397;51.176;6.738;2024-02-21T13:21:52;14.30;58.60
48551;DHT22;34397;51.176;6.738;2024-02-21T13:24:24;14.30;59.00
48551;DHT22;34397;51.176;6.738;2024-02-21T13:26:55;14.40;58.80
48551;DHT22;34397;51.176;6.738;2024-02-21T13:29:27;14.40;58.80
48551;DHT22;34397;51.176;6.738;2024-02-21T13:31:59;14.50;58.10
48551;DHT22;34397;51.176;6.738;2024-02-21T13:34:31;14.50;57.70
48551;DHT22;34397;51.176;6.738;2024-02-21T13:37:04;14.60;57.70
48551;DHT22;34397;51.176;6.738;2024-02-21T13:39:37;14.60;57.70
48551;DHT22;34397;51.176;6.738;2024-02-21T13:42:09;14.60;57.70
48551;DHT22;34397;51.176;6.738;2024-02-21T13:44:41;14.60;57.40
48551;DHT22;34397;51.176;6.738;2024-02-21T13:47:14;14.40;57.70
48551;DHT22;34397;51.176;6.738;2024-02-21T13:49:46;14.30;57.50
48551;DHT22;34397;51.176;6.738;2024-02-21T13:52:19;14.20;57.80
48551;DHT22;34397;51.176;6.738;2024-02-21T13:54:51;14.10;58.10
48551;DHT22;34397;51.176;6.738;2024-02-21T13:57:23;14.00;58.70
48551;DHT22;34397;51.176;6.738;2024-02-21T13:59:55;13.90;58.70
48551;DHT22;34397;51.176;6.738;2024-02-21T14:02:27;13.60;58.90
48551;DHT22;34397;51.176;6.738;2024-02-21T14:04:59;13.50;58.80
48551;DHT22;34397;51.176;6.738;2024-02-21T14:07:32;13.40;59.20
48551;DHT22;34397;51.176;6.738;2024-02-21T14:10:05;13.30;59.60
48551;DHT22;34397;51.176;6.738;2024-02-21T14:12:39;13.20;60.00
48551;DHT22;34397;51.176;6.738;2024-02-21T14:15:11;13.10;60.00
48551;DHT22;34397;51.176;6.738;2024-02-21T14:17:43;13.00;59.90
48551;DHT22;34397;51.176;6.738;2024-02-21T14:20:15;13.00;59.50
48551;DHT22;34397;51.176;6.738;2024-02-21T14:22:48;12.90;59.90
48551;DHT22;34397;51.176;6.738;2024-02-21T14:25:20;12.90;60.00
48551;DHT22;34397;51.176;6.738;2024-02-21T14:27:52;12.90;60.10
48551;DHT22;34397;51.176;6.738;2024-02-21T14:30:24;12.90;60.60
48551;DHT22;34397;51.176;6.738;2024-02-21T14:32:56;12.90;61.50
48551;DHT22;34397;51.176;6.738;2024-02-21T14:35:28;12.90;60.80
48551;DHT22;34397;51.176;6.738;2024-02-21T14:38:01;12.90;60.30
48551;DHT22;34397;51.176;6.738;2024-02-21T14:40:33;12.90;60.90
48551;DHT22;34397;51.176;6.738;2024-02-21T14:43:05;13.00;61.10
48551;DHT22;34397;51.176;6.738;2024-02-21T14:45:37;13.00;60.80
48551;DHT22;34397;51.176;6.738;2024-02-21T14:48:10;13.00;61.30
48551;DHT22;34397;51.176;6.738;2024-02-21T14:50:42;13.00;61.30
48551;DHT22;34397;51.176;6.738;2024-02-21T14:53:15;13.00;61.60
48551;DHT22;34397;51.176;6.738;2024-02-21T14:55:48;13.00;61.00
48551;DHT22;34397;51.176;6.738;2024-02-21T14:58:21;12.90;61.70
48551;DHT22;34397;51.176;6.738;2024-02-21T15:00:53;13.00;61.40
48551;DHT22;34397;51.176;6.738;2024-02-21T15:03:25;12.90;61.40
48551;DHT22;34397;51.176;6.738;2024-02-21T15:05:58;12.90;61.90
48551;DHT22;34397;51.176;6.738;2024-02-21T15:08:31;12.90;62.50
48551;DHT22;34397;51.176;6.738;2024-02-21T15:11:04;12.80;62.50
48551;DHT22;34397;51.176;6.738;2024-02-21T15:13:36;12.80;62.90
48551;DHT22;34397;51.176;6.738;2024-02-21T15:16:08;12.80;63.10
48551;DHT22;34397;51.176;6.738;2024-02-21T15:18:40;12.70;63.80
48551;DHT22;34397;51.176;6.738;2024-02-21T15:21:12;12.70;63.50
48551;DHT22;34397;51.176;6.738;2024-02-21T15:23:47;12.60;63.30
48551;DHT22;34397;51.176;6.738;2024-02-21T15:26:21;12.60;63.50
48551;DHT22;34397;51.176;6.738;2024-02-21T15:29:01;12.50;63.40
48551;DHT22;34397;51.176;6.738;2024-02-21T15:31:35;12.50;63.40
48551;DHT22;34397;51.176;6.738;2024-02-21T15:34:09;12.40;63.60
48551;DHT22;34397;51.176;6.738;2024-02-21T15:36:41;12.40;63.80
48551;DHT22;34397;51.176;6.738;2024-02-21T15:39:14;12.40;64.00
48551;DHT22;34397;51.176;6.738;2024-02-21T15:41:46;12.30;62.90
48551;DHT22;34397;51.176;6.738;2024-02-21T15:44:19;12.30;63.00
48551;DHT22;34397;51.176;6.738;2024-02-21T15:46:51;12.20;62.30
48551;DHT22;34397;51.176;6.738;2024-02-21T15:49:39;12.20;61.40
48551;DHT22;34397;51.176;6.738;2024-02-21T15:52:27;12.10;60.90
48551;DHT22;34397;51.176;6.738;2024-02-21T15:55:23;12.10;60.80
48551;DHT22;34397;51.176;6.738;2024-02-21T15:57:55;12.00;58.50
48551;DHT22;34397;51.176;6.738;2024-02-21T16:00:27;11.90;58.10
48551;DHT22;34397;51.176;6.738;2024-02-21T16:03:00;11.80;60.10
48551;DHT22;34397;51.176;6.738;2024-02-21T16:05:33;11.80;59.70
48551;DHT22;34397;51.176;6.738;2024-02-21T16:08:06;11.70;58.80
48551;DHT22;34397;51.176;6.738;2024-02-21T16:10:40;11.60;58.90
48551;DHT22;34397;51.176;6.738;2024-02-21T16:13:12;11.50;58.10
48551;DHT22;34397;51.176;6.738;2024-02-21T16:15:45;11.50;59.70
48551;DHT22;34397;51.176;6.738;2024-02-21T16:18:19;11.40;59.70